sensor_id;sensor_type;location;lat;lon;timestamp;P1;durP1;ratioP1;P2;durP2;ratioP2
75626;SDS011;67372;49.404;11.034;2023-08-30T00:01:06;5.30;;;3.60;;
75626;SDS011;67372;49.404;11.034;2023-08-30T00:03:33;5.07;;;3.58;;
75626;SDS011;67372;49.404;11.034;2023-08-30T00:06:03;4.57;;;3.58;;
75626;SDS011;67372;49.404;11.034;2023-08-30T00:08:31;4.93;;;3.78;;
75626;SDS011;67372;49.404;11.034;2023-08-30T00:10:58;6.55;;;3.75;;
75626;SDS011;67372;49.404;11.034;2023-08-30T00:13:25;4.70;;;3.67;;
75626;SDS011;67372;49.404;11.034;2023-08-30T00:18:18;6.20;;;3.35;;
75626;SDS011;67372;49.404;11.034;2023-08-30T00:20:44;4.18;;;3.50;;
75626;SDS011;67372;49.404;11.034;2023-08-30T00:23:11;5.35;;;3.58;;
75626;SDS011;67372;49.404;11.034;2023-08-30T00:25:37;5.68;;;3.75;;
75626;SDS011;67372;49.404;11.034;2023-08-30T00:28:03;5.28;;;4.00;;
75626;SDS011;67372;49.404;11.034;2023-08-30T00:30:30;5.20;;;3.33;;
75626;SDS011;67372;49.404;11.034;2023-08-30T00:32:56;6.10;;;3.75;;
75626;SDS011;67372;49.404;11.034;2023-08-30T00:35:23;5.45;;;3.90;;
75626;SDS011;67372;49.404;11.034;2023-08-30T00:37:49;6.43;;;3.40;;
75626;SDS011;67372;49.404;11.034;2023-08-30T00:42:43;6.18;;;3.90;;
75626;SDS011;67372;49.404;11.034;2023-08-30T00:45:09;5.25;;;3.70;;
75626;SDS011;67372;49.404;11.034;2023-08-30T00:47:36;4.60;;;3.55;;
75626;SDS011;67372;49.404;11.034;2023-08-30T00:50:02;6.53;;;4.03;;
75626;SDS011;67372;49.404;11.034;2023-08-30T00:52:29;5.65;;;3.97;;
75626;SDS011;67372;49.404;11.034;2023-08-30T00:54:56;6.30;;;4.05;;
75626;SDS011;67372;49.404;11.034;2023-08-30T00:57:22;5.43;;;4.05;;
75626;SDS011;67372;49.404;11.034;2023-08-30T00:59:49;4.97;;;3.65;;
75626;SDS011;67372;49.404;11.034;2023-08-30T01:02:19;6.82;;;3.95;;
75626;SDS011;67372;49.404;11.034;2023-08-30T01:04:45;6.13;;;3.80;;
75626;SDS011;67372;49.404;11.034;2023-08-30T01:07:12;6.20;;;3.83;;
75626;SDS011;67372;49.404;11.034;2023-08-30T01:09:38;5.93;;;3.72;;
75626;SDS011;67372;49.404;11.034;2023-08-30T01:12:17;5.13;;;3.70;;
75626;SDS011;67372;49.404;11.034;2023-08-30T01:14:57;5.57;;;3.90;;
75626;SDS011;67372;49.404;11.034;2023-08-30T01:17:27;7.78;;;3.63;;
75626;SDS011;67372;49.404;11.034;2023-08-30T01:27:45;5.35;;;3.80;;
75626;SDS011;67372;49.404;11.034;2023-08-30T01:30:13;5.25;;;3.72;;
75626;SDS011;67372;49.404;11.034;2023-08-30T01:32:41;5.25;;;3.80;;
75626;SDS011;67372;49.404;11.034;2023-08-30T01:35:09;6.15;;;4.20;;
75626;SDS011;67372;49.404;11.034;2023-08-30T01:37:36;6.07;;;4.25;;
75626;SDS011;67372;49.404;11.034;2023-08-30T01:40:03;5.30;;;3.85;;
75626;SDS011;67372;49.404;11.034;2023-08-30T01:42:30;7.05;;;4.10;;
75626;SDS011;67372;49.404;11.034;2023-08-30T01:47:25;5.72;;;3.55;;
75626;SDS011;67372;49.404;11.034;2023-08-30T01:49:54;5.43;;;4.28;;
75626;SDS011;67372;49.404;11.034;2023-08-30T01:52:22;6.25;;;3.80;;
75626;SDS011;67372;49.404;11.034;2023-08-30T01:54:51;5.10;;;3.45;;
75626;SDS011;67372;49.404;11.034;2023-08-30T01:57:18;6.13;;;3.92;;
75626;SDS011;67372;49.404;11.034;2023-08-30T01:59:45;5.15;;;3.88;;
75626;SDS011;67372;49.404;11.034;2023-08-30T02:02:11;4.45;;;3.15;;
75626;SDS011;67372;49.404;11.034;2023-08-30T02:04:38;7.05;;;3.65;;
75626;SDS011;67372;49.404;11.034;2023-08-30T02:07:05;8.48;;;4.38;;
75626;SDS011;67372;49.404;11.034;2023-08-30T02:09:40;4.85;;;3.42;;
75626;SDS011;67372;49.404;11.034;2023-08-30T02:12:14;4.53;;;3.50;;
75626;SDS011;67372;49.404;11.034;2023-08-30T02:14:44;7.18;;;3.75;;
75626;SDS011;67372;49.404;11.034;2023-08-30T02:17:15;6.10;;;3.72;;
75626;SDS011;67372;49.404;11.034;2023-08-30T02:19:44;6.57;;;3.58;;
75626;SDS011;67372;49.404;11.034;2023-08-30T02:22:11;4.72;;;3.47;;
75626;SDS011;67372;49.404;11.034;2023-08-30T02:24:38;6.78;;;3.72;;
75626;SDS011;67372;49.404;11.034;2023-08-30T02:27:04;4.45;;;3.28;;
75626;SDS011;67372;49.404;11.034;2023-08-30T02:29:31;5.10;;;3.47;;
75626;SDS011;67372;49.404;11.034;2023-08-30T02:31:57;6.28;;;3.47;;
75626;SDS011;67372;49.404;11.034;2023-08-30T02:34:23;5.32;;;3.72;;
75626;SDS011;67372;49.404;11.034;2023-08-30T02:36:50;6.47;;;3.75;;
75626;SDS011;67372;49.404;11.034;2023-08-30T02:39:16;4.60;;;3.55;;
75626;SDS011;67372;49.404;11.034;2023-08-30T02:41:43;9.13;;;3.83;;
75626;SDS011;67372;49.404;11.034;2023-08-30T02:44:10;6.60;;;4.28;;
75626;SDS011;67372;49.404;11.034;2023-08-30T02:46:37;7.40;;;4.32;;
75626;SDS011;67372;49.404;11.034;2023-08-30T02:49:04;5.60;;;4.10;;
75626;SDS011;67372;49.404;11.034;2023-08-30T02:51:31;6.45;;;4.30;;
75626;SDS011;67372;49.404;11.034;2023-08-30T02:53:57;6.45;;;4.10;;
75626;SDS011;67372;49.404;11.034;2023-08-30T02:56:23;6.60;;;3.80;;
75626;SDS011;67372;49.404;11.034;2023-08-30T02:58:50;6.43;;;3.90;;
75626;SDS011;67372;49.404;11.034;2023-08-30T03:01:17;5.97;;;3.83;;
75626;SDS011;67372;49.404;11.034;2023-08-30T03:03:43;6.93;;;3.90;;
75626;SDS011;67372;49.404;11.034;2023-08-30T03:06:11;5.28;;;3.55;;
75626;SDS011;67372;49.404;11.034;2023-08-30T03:08:38;5.50;;;3.70;;
75626;SDS011;67372;49.404;11.034;2023-08-30T03:11:11;4.88;;;3.47;;
75626;SDS011;67372;49.404;11.034;2023-08-30T03:13:38;6.13;;;3.80;;
75626;SDS011;67372;49.404;11.034;2023-08-30T03:16:11;6.43;;;3.83;;
75626;SDS011;67372;49.404;11.034;2023-08-30T03:18:42;5.55;;;3.83;;
75626;SDS011;67372;49.404;11.034;2023-08-30T03:21:09;4.97;;;3.70;;
75626;SDS011;67372;49.404;11.034;2023-08-30T03:23:36;5.65;;;3.97;;
75626;SDS011;67372;49.404;11.034;2023-08-30T03:26:07;5.70;;;3.95;;
75626;SDS011;67372;49.404;11.034;2023-08-30T03:28:37;5.30;;;3.85;;
75626;SDS011;67372;49.404;11.034;2023-08-30T03:31:20;7.05;;;3.90;;
75626;SDS011;67372;49.404;11.034;2023-08-30T03:33:47;8.10;;;4.13;;
75626;SDS011;67372;49.404;11.034;2023-08-30T03:36:16;6.18;;;4.03;;
75626;SDS011;67372;49.404;11.034;2023-08-30T03:38:43;7.03;;;3.90;;
75626;SDS011;67372;49.404;11.034;2023-08-30T03:41:11;7.57;;;3.97;;
75626;SDS011;67372;49.404;11.034;2023-08-30T03:43:37;5.03;;;3.75;;
75626;SDS011;67372;49.404;11.034;2023-08-30T03:46:04;5.53;;;4.10;;
75626;SDS011;67372;49.404;11.034;2023-08-30T03:48:31;5.95;;;4.32;;
75626;SDS011;67372;49.404;11.034;2023-08-30T03:50:58;6.95;;;4.47;;
75626;SDS011;67372;49.404;11.034;2023-08-30T03:53:24;6.95;;;3.90;;
75626;SDS011;67372;49.404;11.034;2023-08-30T03:55:51;5.30;;;3.97;;
75626;SDS011;67372;49.404;11.034;2023-08-30T03:58:18;6.82;;;4.53;;
75626;SDS011;67372;49.404;11.034;2023-08-30T04:00:45;6.45;;;4.65;;
75626;SDS011;67372;49.404;11.034;2023-08-30T04:03:12;6.32;;;4.25;;
75626;SDS011;67372;49.404;11.034;2023-08-30T04:05:40;9.05;;;4.70;;
75626;SDS011;67372;49.404;11.034;2023-08-30T04:08:07;6.93;;;4.18;;
75626;SDS011;67372;49.404;11.034;2023-08-30T04:10:34;8.02;;;4.30;;
75626;SDS011;67372;49.404;11.034;2023-08-30T04:13:02;7.78;;;4.45;;
75626;SDS011;67372;49.404;11.034;2023-08-30T04:15:32;7.88;;;4.65;;
75626;SDS011;67372;49.404;11.034;2023-08-30T04:18:02;8.18;;;4.45;;
75626;SDS011;67372;49.404;11.034;2023-08-30T04:20:29;7.25;;;4.88;;
75626;SDS011;67372;49.404;11.034;2023-08-30T04:22:56;6.97;;;4.80;;
75626;SDS011;67372;49.404;11.034;2023-08-30T04:25:23;7.30;;;4.50;;
75626;SDS011;67372;49.404;11.034;2023-08-30T04:27:51;7.25;;;4.35;;
75626;SDS011;67372;49.404;11.034;2023-08-30T04:30:17;6.85;;;4.55;;
75626;SDS011;67372;49.404;11.034;2023-08-30T04:32:44;6.68;;;4.60;;
75626;SDS011;67372;49.404;11.034;2023-08-30T04:35:10;8.00;;;4.95;;
75626;SDS011;67372;49.404;11.034;2023-08-30T04:37:37;5.45;;;4.03;;
75626;SDS011;67372;49.404;11.034;2023-08-30T04:40:04;7.90;;;4.82;;
75626;SDS011;67372;49.404;11.034;2023-08-30T04:42:32;6.80;;;4.40;;
75626;SDS011;67372;49.404;11.034;2023-08-30T04:44:58;7.18;;;4.78;;
75626;SDS011;67372;49.404;11.034;2023-08-30T04:47:24;6.18;;;4.53;;
75626;SDS011;67372;49.404;11.034;2023-08-30T04:49:51;6.72;;;4.45;;
75626;SDS011;67372;49.404;11.034;2023-08-30T04:52:17;7.57;;;4.85;;
75626;SDS011;67372;49.404;11.034;2023-08-30T04:54:44;7.80;;;5.15;;
75626;SDS011;67372;49.404;11.034;2023-08-30T04:57:10;8.20;;;4.85;;
75626;SDS011;67372;49.404;11.034;2023-08-30T04:59:37;8.23;;;5.10;;
75626;SDS011;67372;49.404;11.034;2023-08-30T05:02:03;6.63;;;4.30;;
75626;SDS011;67372;49.404;11.034;2023-08-30T05:04:29;6.78;;;4.50;;
75626;SDS011;67372;49.404;11.034;2023-08-30T05:06:56;8.48;;;5.18;;
75626;SDS011;67372;49.404;11.034;2023-08-30T05:09:22;7.13;;;4.80;;
75626;SDS011;67372;49.404;11.034;2023-08-30T05:11:49;7.93;;;4.68;;
75626;SDS011;67372;49.404;11.034;2023-08-30T05:14:15;8.05;;;4.93;;
75626;SDS011;67372;49.404;11.034;2023-08-30T05:16:42;7.07;;;4.93;;
75626;SDS011;67372;49.404;11.034;2023-08-30T05:19:08;7.13;;;4.72;;
75626;SDS011;67372;49.404;11.034;2023-08-30T05:21:34;8.95;;;4.97;;
75626;SDS011;67372;49.404;11.034;2023-08-30T05:24:01;6.95;;;4.95;;
75626;SDS011;67372;49.404;11.034;2023-08-30T05:26:27;8.07;;;4.57;;
75626;SDS011;67372;49.404;11.034;2023-08-30T05:28:54;12.23;;;5.93;;
75626;SDS011;67372;49.404;11.034;2023-08-30T05:31:20;7.95;;;5.15;;
75626;SDS011;67372;49.404;11.034;2023-08-30T05:33:46;9.02;;;5.18;;
75626;SDS011;67372;49.404;11.034;2023-08-30T05:36:13;6.97;;;4.95;;
75626;SDS011;67372;49.404;11.034;2023-08-30T05:38:41;9.63;;;5.70;;
75626;SDS011;67372;49.404;11.034;2023-08-30T05:41:08;7.32;;;5.28;;
75626;SDS011;67372;49.404;11.034;2023-08-30T05:43:34;6.93;;;4.80;;
75626;SDS011;67372;49.404;11.034;2023-08-30T05:46:04;7.80;;;4.32;;
75626;SDS011;67372;49.404;11.034;2023-08-30T05:48:30;7.13;;;5.05;;
75626;SDS011;67372;49.404;11.034;2023-08-30T05:51:00;7.45;;;5.03;;
75626;SDS011;67372;49.404;11.034;2023-08-30T05:53:26;7.35;;;4.78;;
75626;SDS011;67372;49.404;11.034;2023-08-30T05:55:52;7.43;;;5.07;;
75626;SDS011;67372;49.404;11.034;2023-08-30T05:58:19;7.55;;;5.00;;
75626;SDS011;67372;49.404;11.034;2023-08-30T06:00:45;9.68;;;5.13;;
75626;SDS011;67372;49.404;11.034;2023-08-30T06:03:12;8.10;;;4.72;;
75626;SDS011;67372;49.404;11.034;2023-08-30T06:05:38;6.88;;;4.82;;
75626;SDS011;67372;49.404;11.034;2023-08-30T06:08:05;6.78;;;4.93;;
75626;SDS011;67372;49.404;11.034;2023-08-30T06:10:31;7.35;;;5.15;;
75626;SDS011;67372;49.404;11.034;2023-08-30T06:12:57;12.38;;;5.40;;
75626;SDS011;67372;49.404;11.034;2023-08-30T06:15:24;10.05;;;6.03;;
75626;SDS011;67372;49.404;11.034;2023-08-30T06:17:50;9.43;;;5.80;;
75626;SDS011;67372;49.404;11.034;2023-08-30T06:20:17;9.65;;;5.68;;
75626;SDS011;67372;49.404;11.034;2023-08-30T06:22:43;8.73;;;5.65;;
75626;SDS011;67372;49.404;11.034;2023-08-30T06:25:11;10.38;;;6.10;;
75626;SDS011;67372;49.404;11.034;2023-08-30T06:27:41;10.48;;;6.78;;
75626;SDS011;67372;49.404;11.034;2023-08-30T06:30:09;9.20;;;6.13;;
75626;SDS011;67372;49.404;11.034;2023-08-30T06:32:37;10.43;;;6.57;;
75626;SDS011;67372;49.404;11.034;2023-08-30T06:35:03;10.13;;;6.15;;
75626;SDS011;67372;49.404;11.034;2023-08-30T06:37:30;10.05;;;6.25;;
75626;SDS011;67372;49.404;11.034;2023-08-30T06:39:56;10.57;;;5.90;;
75626;SDS011;67372;49.404;11.034;2023-08-30T06:42:23;10.82;;;6.63;;
75626;SDS011;67372;49.404;11.034;2023-08-30T06:44:49;9.15;;;6.32;;
75626;SDS011;67372;49.404;11.034;2023-08-30T06:47:15;11.05;;;6.22;;
75626;SDS011;67372;49.404;11.034;2023-08-30T06:49:42;10.95;;;6.57;;
75626;SDS011;67372;49.404;11.034;2023-08-30T06:52:08;12.73;;;7.57;;
75626;SDS011;67372;49.404;11.034;2023-08-30T06:54:34;12.00;;;6.93;;
75626;SDS011;67372;49.404;11.034;2023-08-30T06:57:01;11.00;;;7.25;;
75626;SDS011;67372;49.404;11.034;2023-08-30T06:59:28;11.40;;;7.53;;
75626;SDS011;67372;49.404;11.034;2023-08-30T07:01:54;12.63;;;7.38;;
75626;SDS011;67372;49.404;11.034;2023-08-30T07:04:20;10.88;;;7.05;;
75626;SDS011;67372;49.404;11.034;2023-08-30T07:06:47;12.70;;;7.45;;
75626;SDS011;67372;49.404;11.034;2023-08-30T07:09:13;12.95;;;7.50;;
75626;SDS011;67372;49.404;11.034;2023-08-30T07:11:41;12.98;;;7.97;;
75626;SDS011;67372;49.404;11.034;2023-08-30T07:14:08;15.55;;;9.73;;
75626;SDS011;67372;49.404;11.034;2023-08-30T07:16:35;12.75;;;8.65;;
75626;SDS011;67372;49.404;11.034;2023-08-30T07:19:01;14.20;;;8.82;;
75626;SDS011;67372;49.404;11.034;2023-08-30T07:21:28;13.93;;;8.75;;
75626;SDS011;67372;49.404;11.034;2023-08-30T07:23:54;12.60;;;7.97;;
75626;SDS011;67372;49.404;11.034;2023-08-30T07:26:20;15.35;;;9.52;;
75626;SDS011;67372;49.404;11.034;2023-08-30T07:28:47;13.90;;;9.20;;
75626;SDS011;67372;49.404;11.034;2023-08-30T07:31:13;14.38;;;9.10;;
75626;SDS011;67372;49.404;11.034;2023-08-30T07:33:40;13.95;;;9.40;;
75626;SDS011;67372;49.404;11.034;2023-08-30T07:36:07;16.52;;;10.02;;
75626;SDS011;67372;49.404;11.034;2023-08-30T07:38:33;14.07;;;9.30;;
75626;SDS011;67372;49.404;11.034;2023-08-30T07:41:00;14.85;;;9.23;;
75626;SDS011;67372;49.404;11.034;2023-08-30T07:43:27;15.90;;;9.70;;
75626;SDS011;67372;49.404;11.034;2023-08-30T07:45:53;16.58;;;9.45;;
75626;SDS011;67372;49.404;11.034;2023-08-30T07:48:20;13.00;;;8.70;;
75626;SDS011;67372;49.404;11.034;2023-08-30T07:50:46;14.23;;;8.95;;
75626;SDS011;67372;49.404;11.034;2023-08-30T07:53:12;14.70;;;8.35;;
75626;SDS011;67372;49.404;11.034;2023-08-30T07:55:39;18.77;;;9.38;;
75626;SDS011;67372;49.404;11.034;2023-08-30T07:58:05;13.93;;;8.68;;
75626;SDS011;67372;49.404;11.034;2023-08-30T08:00:32;13.32;;;8.40;;
75626;SDS011;67372;49.404;11.034;2023-08-30T08:02:58;16.60;;;9.40;;
75626;SDS011;67372;49.404;11.034;2023-08-30T08:05:25;15.02;;;9.00;;
75626;SDS011;67372;49.404;11.034;2023-08-30T08:07:52;12.90;;;8.07;;
75626;SDS011;67372;49.404;11.034;2023-08-30T08:12:45;13.77;;;8.43;;
75626;SDS011;67372;49.404;11.034;2023-08-30T08:15:12;11.43;;;7.50;;
75626;SDS011;67372;49.404;11.034;2023-08-30T08:17:38;14.63;;;7.30;;
75626;SDS011;67372;49.404;11.034;2023-08-30T08:20:05;11.25;;;7.18;;
75626;SDS011;67372;49.404;11.034;2023-08-30T08:22:31;10.32;;;7.13;;
75626;SDS011;67372;49.404;11.034;2023-08-30T08:24:58;14.02;;;8.00;;
75626;SDS011;67372;49.404;11.034;2023-08-30T08:27:24;10.48;;;7.65;;
75626;SDS011;67372;49.404;11.034;2023-08-30T08:29:51;11.40;;;7.53;;
75626;SDS011;67372;49.404;11.034;2023-08-30T08:32:17;11.25;;;7.20;;
75626;SDS011;67372;49.404;11.034;2023-08-30T08:34:43;13.20;;;8.40;;
75626;SDS011;67372;49.404;11.034;2023-08-30T08:37:10;11.88;;;7.18;;
75626;SDS011;67372;49.404;11.034;2023-08-30T08:39:36;9.52;;;6.85;;
75626;SDS011;67372;49.404;11.034;2023-08-30T08:42:03;9.57;;;6.38;;
75626;SDS011;67372;49.404;11.034;2023-08-30T08:44:31;9.57;;;7.03;;
75626;SDS011;67372;49.404;11.034;2023-08-30T08:46:58;10.32;;;7.10;;
75626;SDS011;67372;49.404;11.034;2023-08-30T08:49:26;10.00;;;6.63;;
75626;SDS011;67372;49.404;11.034;2023-08-30T08:51:53;10.13;;;7.25;;
75626;SDS011;67372;49.404;11.034;2023-08-30T08:54:20;10.18;;;6.82;;
75626;SDS011;67372;49.404;11.034;2023-08-30T08:56:46;9.82;;;6.60;;
75626;SDS011;67372;49.404;11.034;2023-08-30T08:59:13;10.20;;;6.82;;
75626;SDS011;67372;49.404;11.034;2023-08-30T09:01:39;10.48;;;6.30;;
75626;SDS011;67372;49.404;11.034;2023-08-30T09:04:07;9.38;;;6.38;;
75626;SDS011;67372;49.404;11.034;2023-08-30T09:06:35;9.95;;;6.93;;
75626;SDS011;67372;49.404;11.034;2023-08-30T09:09:02;10.23;;;7.18;;
75626;SDS011;67372;49.404;11.034;2023-08-30T09:11:29;12.10;;;7.10;;
75626;SDS011;67372;49.404;11.034;2023-08-30T09:14:16;10.95;;;7.07;;
75626;SDS011;67372;49.404;11.034;2023-08-30T09:16:42;11.45;;;8.25;;
75626;SDS011;67372;49.404;11.034;2023-08-30T09:19:08;11.13;;;7.68;;
75626;SDS011;67372;49.404;11.034;2023-08-30T09:21:36;10.05;;;7.13;;
75626;SDS011;67372;49.404;11.034;2023-08-30T09:24:04;9.20;;;6.22;;
75626;SDS011;67372;49.404;11.034;2023-08-30T09:26:32;9.85;;;7.32;;
75626;SDS011;67372;49.404;11.034;2023-08-30T09:29:03;9.77;;;6.97;;
75626;SDS011;67372;49.404;11.034;2023-08-30T09:31:33;12.38;;;7.88;;
75626;SDS011;67372;49.404;11.034;2023-08-30T09:34:03;12.05;;;7.72;;
75626;SDS011;67372;49.404;11.034;2023-08-30T09:39:18;13.68;;;7.60;;
75626;SDS011;67372;49.404;11.034;2023-08-30T09:41:45;12.63;;;7.57;;
75626;SDS011;67372;49.404;11.034;2023-08-30T09:44:16;10.63;;;6.75;;
75626;SDS011;67372;49.404;11.034;2023-08-30T09:46:49;9.80;;;6.30;;
75626;SDS011;67372;49.404;11.034;2023-08-30T09:49:19;9.07;;;6.38;;
75626;SDS011;67372;49.404;11.034;2023-08-30T09:51:47;11.25;;;7.25;;
75626;SDS011;67372;49.404;11.034;2023-08-30T09:54:16;8.63;;;5.80;;
75626;SDS011;67372;49.404;11.034;2023-08-30T09:56:50;10.00;;;6.93;;
75626;SDS011;67372;49.404;11.034;2023-08-30T09:59:17;10.13;;;6.45;;
75626;SDS011;67372;49.404;11.034;2023-08-30T10:01:46;10.80;;;7.25;;
75626;SDS011;67372;49.404;11.034;2023-08-30T10:04:13;11.07;;;7.15;;
75626;SDS011;67372;49.404;11.034;2023-08-30T10:06:41;12.70;;;8.50;;
75626;SDS011;67372;49.404;11.034;2023-08-30T10:09:08;11.35;;;6.90;;
75626;SDS011;67372;49.404;11.034;2023-08-30T10:11:35;10.85;;;7.45;;
75626;SDS011;67372;49.404;11.034;2023-08-30T10:14:06;10.50;;;7.30;;
75626;SDS011;67372;49.404;11.034;2023-08-30T10:16:37;11.90;;;8.48;;
75626;SDS011;67372;49.404;11.034;2023-08-30T10:21:43;11.55;;;7.72;;
75626;SDS011;67372;49.404;11.034;2023-08-30T10:24:11;12.18;;;8.38;;
75626;SDS011;67372;49.404;11.034;2023-08-30T10:26:58;10.52;;;7.60;;
75626;SDS011;67372;49.404;11.034;2023-08-30T10:29:26;9.75;;;6.70;;
75626;SDS011;67372;49.404;11.034;2023-08-30T10:31:54;12.05;;;8.38;;
75626;SDS011;67372;49.404;11.034;2023-08-30T10:34:21;10.63;;;7.68;;
75626;SDS011;67372;49.404;11.034;2023-08-30T10:36:56;9.75;;;7.13;;
75626;SDS011;67372;49.404;11.034;2023-08-30T10:39:27;9.65;;;6.75;;
75626;SDS011;67372;49.404;11.034;2023-08-30T10:42:08;10.43;;;7.10;;
75626;SDS011;67372;49.404;11.034;2023-08-30T10:44:37;9.63;;;7.03;;
75626;SDS011;67372;49.404;11.034;2023-08-30T10:50:06;9.45;;;7.50;;
75626;SDS011;67372;49.404;11.034;2023-08-30T10:52:34;7.40;;;5.55;;
75626;SDS011;67372;49.404;11.034;2023-08-30T10:55:07;11.70;;;6.45;;
75626;SDS011;67372;49.404;11.034;2023-08-30T10:57:43;10.27;;;6.30;;
75626;SDS011;67372;49.404;11.034;2023-08-30T11:00:16;7.82;;;6.07;;
75626;SDS011;67372;49.404;11.034;2023-08-30T11:02:46;6.70;;;5.03;;
75626;SDS011;67372;49.404;11.034;2023-08-30T11:05:15;6.70;;;5.28;;
75626;SDS011;67372;49.404;11.034;2023-08-30T11:07:43;6.82;;;5.70;;
75626;SDS011;67372;49.404;11.034;2023-08-30T11:10:10;6.18;;;4.82;;
75626;SDS011;67372;49.404;11.034;2023-08-30T11:12:36;7.60;;;5.28;;
75626;SDS011;67372;49.404;11.034;2023-08-30T11:15:03;6.97;;;5.32;;
75626;SDS011;67372;49.404;11.034;2023-08-30T11:17:30;5.80;;;4.65;;
75626;SDS011;67372;49.404;11.034;2023-08-30T11:20:09;6.80;;;5.05;;
75626;SDS011;67372;49.404;11.034;2023-08-30T11:22:39;5.40;;;4.20;;
75626;SDS011;67372;49.404;11.034;2023-08-30T11:25:08;5.20;;;4.40;;
75626;SDS011;67372;49.404;11.034;2023-08-30T11:27:36;5.60;;;3.67;;
75626;SDS011;67372;49.404;11.034;2023-08-30T11:30:03;6.82;;;4.30;;
75626;SDS011;67372;49.404;11.034;2023-08-30T11:32:34;4.68;;;3.50;;
75626;SDS011;67372;49.404;11.034;2023-08-30T11:35:01;4.90;;;3.65;;
75626;SDS011;67372;49.404;11.034;2023-08-30T11:37:28;6.22;;;4.57;;
75626;SDS011;67372;49.404;11.034;2023-08-30T11:39:55;5.20;;;3.90;;
75626;SDS011;67372;49.404;11.034;2023-08-30T11:42:22;5.20;;;4.07;;
75626;SDS011;67372;49.404;11.034;2023-08-30T11:44:50;4.82;;;4.22;;
75626;SDS011;67372;49.404;11.034;2023-08-30T11:47:20;4.82;;;3.53;;
75626;SDS011;67372;49.404;11.034;2023-08-30T11:49:48;4.57;;;4.10;;
75626;SDS011;67372;49.404;11.034;2023-08-30T11:52:16;5.38;;;4.05;;
75626;SDS011;67372;49.404;11.034;2023-08-30T11:54:44;4.75;;;3.80;;
75626;SDS011;67372;49.404;11.034;2023-08-30T11:57:11;5.25;;;4.18;;
75626;SDS011;67372;49.404;11.034;2023-08-30T11:59:37;4.70;;;4.13;;
75626;SDS011;67372;49.404;11.034;2023-08-30T12:02:06;4.68;;;4.07;;
75626;SDS011;67372;49.404;11.034;2023-08-30T12:04:51;5.60;;;3.63;;
75626;SDS011;67372;49.404;11.034;2023-08-30T12:07:24;4.95;;;3.97;;
75626;SDS011;67372;49.404;11.034;2023-08-30T12:09:52;4.72;;;4.05;;
75626;SDS011;67372;49.404;11.034;2023-08-30T12:12:18;4.88;;;4.00;;
75626;SDS011;67372;49.404;11.034;2023-08-30T12:14:45;4.82;;;4.10;;
75626;SDS011;67372;49.404;11.034;2023-08-30T12:17:11;4.95;;;4.43;;
75626;SDS011;67372;49.404;11.034;2023-08-30T12:19:38;6.00;;;5.03;;
75626;SDS011;67372;49.404;11.034;2023-08-30T12:22:04;5.88;;;4.13;;
75626;SDS011;67372;49.404;11.034;2023-08-30T12:24:43;5.28;;;4.45;;
75626;SDS011;67372;49.404;11.034;2023-08-30T12:27:10;4.95;;;4.35;;
75626;SDS011;67372;49.404;11.034;2023-08-30T12:29:37;4.95;;;4.22;;
75626;SDS011;67372;49.404;11.034;2023-08-30T12:32:04;5.07;;;4.50;;
75626;SDS011;67372;49.404;11.034;2023-08-30T12:34:30;5.70;;;4.28;;
75626;SDS011;67372;49.404;11.034;2023-08-30T12:36:57;4.22;;;3.60;;
75626;SDS011;67372;49.404;11.034;2023-08-30T12:39:23;5.05;;;3.95;;
75626;SDS011;67372;49.404;11.034;2023-08-30T12:41:50;4.78;;;4.10;;
75626;SDS011;67372;49.404;11.034;2023-08-30T12:44:16;4.60;;;3.60;;
75626;SDS011;67372;49.404;11.034;2023-08-30T12:46:43;5.25;;;3.40;;
75626;SDS011;67372;49.404;11.034;2023-08-30T12:49:09;4.28;;;3.38;;
75626;SDS011;67372;49.404;11.034;2023-08-30T12:51:36;4.28;;;3.58;;
75626;SDS011;67372;49.404;11.034;2023-08-30T12:54:02;3.42;;;3.13;;
75626;SDS011;67372;49.404;11.034;2023-08-30T12:56:28;4.30;;;3.60;;
75626;SDS011;67372;49.404;11.034;2023-08-30T12:58:55;4.75;;;3.35;;
75626;SDS011;67372;49.404;11.034;2023-08-30T13:01:21;5.55;;;3.95;;
75626;SDS011;67372;49.404;11.034;2023-08-30T13:03:48;4.85;;;3.30;;
75626;SDS011;67372;49.404;11.034;2023-08-30T13:06:14;5.13;;;3.47;;
75626;SDS011;67372;49.404;11.034;2023-08-30T13:08:41;4.53;;;3.30;;
75626;SDS011;67372;49.404;11.034;2023-08-30T13:11:07;4.90;;;3.80;;
75626;SDS011;67372;49.404;11.034;2023-08-30T13:13:33;4.28;;;3.58;;
75626;SDS011;67372;49.404;11.034;2023-08-30T13:16:00;3.70;;;3.30;;
75626;SDS011;67372;49.404;11.034;2023-08-30T13:18:26;4.65;;;4.10;;
75626;SDS011;67372;49.404;11.034;2023-08-30T13:20:55;4.32;;;3.80;;
75626;SDS011;67372;49.404;11.034;2023-08-30T13:23:22;4.82;;;3.95;;
75626;SDS011;67372;49.404;11.034;2023-08-30T13:25:48;5.57;;;3.65;;
75626;SDS011;67372;49.404;11.034;2023-08-30T13:28:15;5.15;;;3.72;;
75626;SDS011;67372;49.404;11.034;2023-08-30T13:30:44;3.88;;;3.33;;
75626;SDS011;67372;49.404;11.034;2023-08-30T13:33:11;4.15;;;3.50;;
75626;SDS011;67372;49.404;11.034;2023-08-30T13:35:39;4.32;;;3.60;;
75626;SDS011;67372;49.404;11.034;2023-08-30T13:38:06;3.78;;;3.25;;
75626;SDS011;67372;49.404;11.034;2023-08-30T13:40:32;5.28;;;3.72;;
75626;SDS011;67372;49.404;11.034;2023-08-30T13:42:58;4.18;;;3.78;;
75626;SDS011;67372;49.404;11.034;2023-08-30T13:45:25;5.63;;;4.50;;
75626;SDS011;67372;49.404;11.034;2023-08-30T13:47:51;4.20;;;3.65;;
75626;SDS011;67372;49.404;11.034;2023-08-30T13:50:18;4.35;;;3.47;;
75626;SDS011;67372;49.404;11.034;2023-08-30T13:52:44;4.15;;;3.45;;
75626;SDS011;67372;49.404;11.034;2023-08-30T13:55:10;4.75;;;3.55;;
75626;SDS011;67372;49.404;11.034;2023-08-30T13:57:37;4.22;;;3.45;;
75626;SDS011;67372;49.404;11.034;2023-08-30T14:00:03;4.72;;;3.53;;
75626;SDS011;67372;49.404;11.034;2023-08-30T14:02:30;5.32;;;3.70;;
75626;SDS011;67372;49.404;11.034;2023-08-30T14:04:56;5.03;;;3.70;;
75626;SDS011;67372;49.404;11.034;2023-08-30T14:07:23;4.10;;;3.70;;
75626;SDS011;67372;49.404;11.034;2023-08-30T14:09:49;4.13;;;3.70;;
75626;SDS011;67372;49.404;11.034;2023-08-30T14:12:16;3.90;;;3.33;;
75626;SDS011;67372;49.404;11.034;2023-08-30T14:14:42;4.30;;;3.65;;
75626;SDS011;67372;49.404;11.034;2023-08-30T14:17:09;4.07;;;3.50;;
75626;SDS011;67372;49.404;11.034;2023-08-30T14:19:35;5.95;;;3.30;;
75626;SDS011;67372;49.404;11.034;2023-08-30T14:22:01;4.20;;;3.28;;
75626;SDS011;67372;49.404;11.034;2023-08-30T14:24:28;3.75;;;3.20;;
75626;SDS011;67372;49.404;11.034;2023-08-30T14:26:56;4.43;;;3.25;;
75626;SDS011;67372;49.404;11.034;2023-08-30T14:29:23;5.65;;;4.07;;
75626;SDS011;67372;49.404;11.034;2023-08-30T14:31:49;5.00;;;3.65;;
75626;SDS011;67372;49.404;11.034;2023-08-30T14:34:16;4.90;;;4.10;;
75626;SDS011;67372;49.404;11.034;2023-08-30T14:36:42;4.18;;;3.72;;
75626;SDS011;67372;49.404;11.034;2023-08-30T14:39:09;5.20;;;4.10;;
75626;SDS011;67372;49.404;11.034;2023-08-30T14:41:35;4.75;;;3.65;;
75626;SDS011;67372;49.404;11.034;2023-08-30T14:44:02;5.10;;;3.58;;
75626;SDS011;67372;49.404;11.034;2023-08-30T14:46:29;3.95;;;3.50;;
75626;SDS011;67372;49.404;11.034;2023-08-30T14:48:55;2.63;;;2.38;;
75626;SDS011;67372;49.404;11.034;2023-08-30T14:51:21;3.63;;;2.88;;
75626;SDS011;67372;49.404;11.034;2023-08-30T14:53:48;3.88;;;2.60;;
75626;SDS011;67372;49.404;11.034;2023-08-30T14:56:14;3.38;;;2.65;;
75626;SDS011;67372;49.404;11.034;2023-08-30T14:58:41;2.97;;;2.17;;